createdAt,value
2022-10-20T06:33:54.813Z,100.00
2022-10-20T06:36:41.910Z,100.00
2022-10-20T06:39:27.457Z,100.00
2022-10-20T06:42:12.938Z,100.00
2022-10-20T06:44:59.168Z,100.00
2022-10-20T06:47:45.265Z,100.00
2022-10-20T06:50:30.629Z,100.00
2022-10-20T06:53:16.267Z,100.00
2022-10-20T06:56:08.107Z,100.00
2022-10-20T06:58:55.771Z,100.00
2022-10-20T07:01:42.203Z,100.00
2022-10-20T07:04:28.058Z,100.00
2022-10-20T07:07:13.399Z,100.00
2022-10-20T07:09:59.225Z,100.00
2022-10-20T07:12:44.760Z,100.00
2022-10-20T07:15:30.133Z,100.00
2022-10-20T07:18:15.718Z,100.00
2022-10-20T07:21:04.130Z,97.33
2022-10-20T07:23:50.636Z,94.00
2022-10-20T07:26:39.214Z,89.91
2022-10-20T07:29:25.008Z,88.84
2022-10-20T07:32:10.580Z,87.83
2022-10-20T07:34:56.052Z,87.26
2022-10-20T07:37:41.415Z,85.75
2022-10-20T07:40:27.117Z,84.99
2022-10-20T07:43:12.776Z,83.08
2022-10-20T07:45:58.121Z,79.85
2022-10-20T07:48:43.890Z,81.04
2022-10-20T07:51:30.946Z,81.91
2022-10-20T07:54:16.860Z,82.83
2022-10-20T07:57:02.701Z,82.16
2022-10-20T07:59:48.025Z,79.51
2022-10-20T08:02:33.517Z,78.77
2022-10-20T08:05:19.151Z,80.47
2022-10-20T08:08:04.970Z,79.76
2022-10-20T08:10:51.018Z,78.26
2022-10-20T08:13:36.570Z,75.85
2022-10-20T08:16:31.087Z,76.21
2022-10-20T08:19:24.863Z,72.44
2022-10-20T08:22:10.738Z,69.67
2022-10-20T08:24:56.363Z,67.04
2022-10-20T08:27:42.139Z,65.72
2022-10-20T08:30:27.887Z,67.13
2022-10-20T08:33:13.686Z,70.66
2022-10-20T08:36:04.422Z,70.96
2022-10-20T08:38:49.860Z,70.25
2022-10-20T08:42:07.447Z,70.20
2022-10-20T08:44:47.304Z,67.18
2022-10-20T08:47:37.342Z,68.41
2022-10-20T08:50:27.578Z,66.40
2022-10-20T08:53:13.154Z,64.27
2022-10-20T08:55:59.085Z,63.27
2022-10-20T08:58:46.366Z,63.35
2022-10-20T09:01:36.106Z,65.15
2022-10-20T09:04:37.136Z,64.75
2022-10-20T09:07:35.841Z,64.16
2022-10-20T09:10:31.600Z,64.06
2022-10-20T09:13:24.898Z,61.28
2022-10-20T09:16:33.426Z,62.18
2022-10-20T09:19:28.162Z,59.20
2022-10-20T09:22:14.655Z,56.49
2022-10-20T09:25:00.439Z,55.35
2022-10-20T09:27:46.320Z,53.95
2022-10-20T09:30:34.396Z,53.97
2022-10-20T09:33:34.244Z,54.17
2022-10-20T09:36:27.669Z,52.19
2022-10-20T09:39:27.030Z,52.09
2022-10-20T09:42:16.608Z,51.55
2022-10-20T09:45:06.962Z,51.95
2022-10-20T09:47:56.391Z,51.80
2022-10-20T09:50:48.013Z,48.22
2022-10-20T09:53:39.932Z,48.40
2022-10-20T09:56:25.545Z,49.10
2022-10-20T09:59:19.735Z,51.77
2022-10-20T10:02:29.872Z,50.68
2022-10-20T11:10:39.998Z,42.78
2022-10-20T14:35:11.724Z,64.20
2022-10-20T14:37:44.845Z,65.43
2022-10-20T14:40:35.499Z,66.29
2022-10-20T14:43:53.553Z,66.63
2022-10-20T14:46:48.186Z,67.62
2022-10-20T14:50:44.231Z,69.08
2022-10-20T14:53:29.517Z,69.87
2022-10-20T14:58:03.376Z,71.13
2022-10-20T14:59:47.567Z,72.30
2022-10-20T15:03:32.183Z,73.49
2022-10-20T15:06:23.617Z,74.98
2022-10-20T15:10:27.461Z,75.15
2022-10-20T15:15:58.626Z,76.83
2022-10-20T15:18:58.131Z,77.43
2022-10-20T15:25:03.392Z,80.42
2022-10-20T15:27:50.537Z,80.78
2022-10-20T15:30:36.374Z,81.11
2022-10-20T15:33:36.440Z,81.77
2022-10-20T15:36:31.515Z,82.00
2022-10-20T15:39:20.601Z,82.08
2022-10-20T15:42:22.170Z,82.03
2022-10-20T15:45:22.699Z,82.62
2022-10-20T15:48:23.541Z,82.96
2022-10-20T15:51:39.043Z,84.13
2022-10-20T15:54:25.082Z,85.07
2022-10-20T15:57:24.737Z,85.72
2022-10-20T16:00:12.387Z,86.52
2022-10-20T16:03:08.688Z,86.06
2022-10-20T16:05:55.874Z,85.69
2022-10-20T16:08:51.926Z,85.30
2022-10-20T16:11:42.513Z,85.78
2022-10-20T16:14:28.167Z,86.17
2022-10-20T16:17:13.732Z,86.46
2022-10-20T16:19:59.289Z,86.86
2022-10-20T16:22:44.854Z,87.25
2022-10-20T16:25:30.321Z,87.53
2022-10-20T16:28:15.853Z,87.90
2022-10-20T16:31:06.758Z,87.86
2022-10-20T16:33:52.179Z,87.77
2022-10-20T16:36:38.391Z,88.13
2022-10-20T16:39:24.173Z,89.09
2022-10-20T16:42:09.640Z,88.91
2022-10-20T16:44:55.152Z,88.27
2022-10-20T16:47:40.896Z,87.40
2022-10-20T16:50:26.241Z,88.33
2022-10-20T16:53:11.645Z,88.98
2022-10-20T16:55:57.499Z,88.46
2022-10-20T16:58:43.081Z,88.04
2022-10-20T17:01:28.744Z,88.31
2022-10-20T17:04:14.598Z,88.18
2022-10-20T17:07:00.168Z,87.66
2022-10-20T17:09:45.911Z,88.68
2022-10-20T17:12:31.422Z,88.58
2022-10-20T17:15:16.909Z,87.88
2022-10-20T17:18:02.337Z,87.92
2022-10-20T17:20:53.115Z,87.38
2022-10-20T17:23:42.616Z,87.72
2022-10-20T17:26:32.597Z,87.33
2022-10-20T17:29:21.043Z,87.40
2022-10-20T17:32:10.086Z,87.11
2022-10-20T17:34:57.759Z,86.66
2022-10-20T17:37:43.418Z,86.06
2022-10-20T17:40:28.859Z,86.42
2022-10-20T17:43:14.969Z,87.02
2022-10-20T17:46:03.547Z,86.83
2022-10-20T17:48:49.272Z,87.09
2022-10-20T17:51:35.216Z,87.12
2022-10-20T17:54:22.233Z,87.15
2022-10-20T17:57:07.988Z,86.81
2022-10-20T17:59:56.362Z,86.01
2022-10-20T18:02:51.390Z,85.32
2022-10-20T18:05:37.162Z,86.83
2022-10-20T18:08:22.542Z,86.03
2022-10-20T18:11:11.864Z,86.16
2022-10-20T18:13:59.919Z,86.20
2022-10-20T18:16:45.575Z,86.48
2022-10-20T18:19:31.407Z,86.05
2022-10-20T18:22:16.795Z,86.15
2022-10-20T18:25:02.274Z,86.11
2022-10-20T18:27:48.058Z,85.15
2022-10-20T18:30:37.335Z,85.74
2022-10-20T18:33:23.071Z,85.38
2022-10-20T18:36:11.293Z,85.33
2022-10-20T18:38:57.265Z,85.12
2022-10-20T18:41:43.854Z,85.21
2022-10-20T18:47:20.786Z,85.17
2022-10-20T18:50:06.415Z,85.19
2022-10-20T18:52:51.923Z,85.22
2022-10-20T18:55:37.832Z,85.16
2022-10-20T18:58:23.248Z,84.59
2022-10-20T19:01:14.283Z,85.32
2022-10-20T19:04:00.472Z,84.97
2022-10-20T19:06:47.859Z,85.09
2022-10-20T19:09:33.445Z,85.11
2022-10-20T19:12:18.949Z,85.13
2022-10-20T19:15:04.642Z,85.65
2022-10-20T19:17:50.338Z,85.99
2022-10-20T19:20:35.931Z,85.67
2022-10-20T19:23:22.033Z,85.54
2022-10-20T19:26:17.262Z,84.94
2022-10-20T19:29:08.692Z,84.54
2022-10-20T19:31:59.171Z,84.76
2022-10-20T19:34:45.271Z,84.58
2022-10-20T19:37:30.888Z,84.19
2022-10-20T19:40:16.344Z,85.11
2022-10-20T19:43:01.787Z,87.57
2022-10-20T19:45:49.172Z,90.05
2022-10-20T19:48:35.823Z,91.86
2022-10-20T19:51:21.835Z,93.90
2022-10-20T19:54:08.410Z,95.27
2022-10-20T19:56:54.292Z,96.92
2022-10-20T19:59:39.865Z,98.31
2022-10-20T20:02:25.783Z,100.00
2022-10-20T20:05:11.401Z,100.00
2022-10-20T20:07:56.839Z,100.00
2022-10-20T20:10:51.098Z,100.00
2022-10-20T20:13:36.902Z,100.00
2022-10-20T20:16:22.677Z,100.00
2022-10-20T20:19:08.487Z,100.00
2022-10-20T20:21:55.312Z,100.00
2022-10-20T20:24:41.036Z,100.00
2022-10-20T20:27:26.507Z,100.00
2022-10-20T20:30:12.261Z,100.00
2022-10-20T20:32:57.791Z,100.00
2022-10-20T20:35:43.334Z,100.00
2022-10-20T20:38:31.355Z,100.00
2022-10-20T20:41:18.305Z,100.00
2022-10-20T20:44:08.064Z,100.00
2022-10-20T20:46:54.395Z,100.00
2022-10-20T20:49:39.785Z,100.00
2022-10-20T20:52:26.091Z,100.00
2022-10-20T20:55:11.804Z,100.00
2022-10-20T20:57:57.123Z,100.00
2022-10-20T21:00:42.841Z,100.00
2022-10-20T21:03:29.268Z,100.00
2022-10-20T21:06:17.042Z,100.00
2022-10-20T21:09:11.195Z,100.00
2022-10-20T21:11:56.979Z,100.00
2022-10-20T21:14:42.532Z,100.00
2022-10-20T21:17:27.871Z,100.00
2022-10-20T21:20:13.299Z,100.00
2022-10-20T21:23:01.208Z,100.00
2022-10-20T21:25:49.716Z,100.00
2022-10-20T21:28:38.795Z,100.00
2022-10-20T21:31:26.165Z,100.00
2022-10-20T21:34:12.126Z,100.00
2022-10-20T21:36:57.936Z,100.00
2022-10-20T21:39:43.762Z,100.00
2022-10-20T21:42:29.019Z,100.00
2022-10-20T21:45:19.024Z,100.00
2022-10-20T21:48:05.373Z,100.00
2022-10-20T21:50:50.998Z,100.00
2022-10-20T21:53:36.986Z,100.00
2022-10-20T21:56:22.790Z,100.00
2022-10-20T21:59:15.220Z,100.00
2022-10-20T22:02:02.084Z,100.00
2022-10-20T22:04:47.865Z,100.00
2022-10-20T22:07:33.615Z,100.00
2022-10-20T22:10:18.936Z,100.00
2022-10-20T22:13:05.327Z,100.00
2022-10-20T22:15:50.940Z,100.00
2022-10-20T22:18:36.843Z,100.00
2022-10-20T22:21:24.945Z,100.00
2022-10-20T22:24:11.150Z,100.00
2022-10-20T22:26:56.706Z,100.00
2022-10-20T22:29:42.365Z,100.00
2022-10-20T22:32:27.937Z,100.00
2022-10-20T22:35:13.674Z,100.00
2022-10-20T22:37:59.417Z,100.00
2022-10-20T22:40:45.020Z,100.00
2022-10-20T22:43:31.383Z,100.00
2022-10-20T22:46:18.871Z,100.00
2022-10-20T22:49:07.422Z,100.00
2022-10-20T22:51:53.134Z,100.00
2022-10-20T22:54:38.744Z,100.00
2022-10-20T22:57:24.219Z,100.00
2022-10-20T23:00:13.577Z,100.00
2022-10-20T23:02:59.190Z,100.00
2022-10-20T23:05:44.903Z,100.00
2022-10-20T23:08:32.057Z,100.00
2022-10-20T23:11:19.151Z,100.00
2022-10-20T23:14:04.638Z,100.00
2022-10-20T23:16:50.214Z,100.00
2022-10-20T23:19:35.825Z,100.00
2022-10-20T23:22:24.243Z,100.00
2022-10-20T23:25:10.053Z,100.00
2022-10-20T23:27:56.447Z,100.00
2022-10-20T23:30:41.966Z,100.00
2022-10-20T23:33:27.351Z,100.00
2022-10-20T23:36:14.252Z,100.00
2022-10-20T23:39:02.345Z,100.00
2022-10-20T23:41:47.860Z,100.00
2022-10-20T23:44:33.235Z,100.00
2022-10-20T23:47:18.859Z,100.00
2022-10-20T23:50:04.360Z,100.00
2022-10-20T23:52:49.920Z,100.00
2022-10-20T23:55:35.659Z,100.00
2022-10-20T23:58:22.614Z,100.00
